sensor_id;sensor_type;location;lat;lon;timestamp;P1;durP1;ratioP1;P2;durP2;ratioP2
77814;SDS011;67002;52.124;21.210;2023-04-06T00:00:15;3.30;;;2.80;;
77814;SDS011;67002;52.124;21.210;2023-04-06T00:04:20;3.00;;;2.40;;
77814;SDS011;67002;52.124;21.210;2023-04-06T00:08:04;3.30;;;2.50;;
77814;SDS011;67002;52.124;21.210;2023-04-06T00:11:49;3.20;;;2.30;;
77814;SDS011;67002;52.124;21.210;2023-04-06T00:15:33;3.10;;;2.40;;
77814;SDS011;67002;52.124;21.210;2023-04-06T00:19:37;2.60;;;2.30;;
77814;SDS011;67002;52.124;21.210;2023-04-06T00:23:03;3.30;;;2.10;;
77814;SDS011;67002;52.124;21.210;2023-04-06T00:26:52;2.60;;;2.10;;
77814;SDS011;67002;52.124;21.210;2023-04-06T00:30:11;2.50;;;2.30;;
77814;SDS011;67002;52.124;21.210;2023-04-06T00:34:23;2.50;;;2.20;;
77814;SDS011;67002;52.124;21.210;2023-04-06T00:37:34;2.80;;;2.20;;
77814;SDS011;67002;52.124;21.210;2023-04-06T00:41:20;3.40;;;2.50;;
77814;SDS011;67002;52.124;21.210;2023-04-06T00:44:57;2.90;;;2.10;;
77814;SDS011;67002;52.124;21.210;2023-04-06T00:48:53;3.00;;;2.30;;
77814;SDS011;67002;52.124;21.210;2023-04-06T00:52:49;2.70;;;2.40;;
77814;SDS011;67002;52.124;21.210;2023-04-06T00:56:06;3.30;;;2.30;;
77814;SDS011;67002;52.124;21.210;2023-04-06T00:59:55;3.20;;;2.30;;
77814;SDS011;67002;52.124;21.210;2023-04-06T01:03:14;3.30;;;2.50;;
77814;SDS011;67002;52.124;21.210;2023-04-06T01:07:16;2.70;;;2.00;;
77814;SDS011;67002;52.124;21.210;2023-04-06T01:10:40;3.00;;;2.20;;
77814;SDS011;67002;52.124;21.210;2023-04-06T01:14:31;3.30;;;2.30;;
77814;SDS011;67002;52.124;21.210;2023-04-06T01:18:12;3.50;;;2.40;;
77814;SDS011;67002;52.124;21.210;2023-04-06T01:21:27;2.80;;;2.10;;
77814;SDS011;67002;52.124;21.210;2023-04-06T01:25:25;2.80;;;2.50;;
77814;SDS011;67002;52.124;21.210;2023-04-06T01:29:20;2.70;;;2.00;;
77814;SDS011;67002;52.124;21.210;2023-04-06T01:33:15;2.50;;;1.80;;
77814;SDS011;67002;52.124;21.210;2023-04-06T01:36:46;4.10;;;2.30;;
77814;SDS011;67002;52.124;21.210;2023-04-06T01:40:41;2.60;;;2.10;;
77814;SDS011;67002;52.124;21.210;2023-04-06T01:44:17;2.80;;;1.90;;
77814;SDS011;67002;52.124;21.210;2023-04-06T01:47:37;2.70;;;2.00;;
77814;SDS011;67002;52.124;21.210;2023-04-06T01:51:14;2.30;;;1.90;;
77814;SDS011;67002;52.124;21.210;2023-04-06T01:54:49;3.00;;;2.30;;
77814;SDS011;67002;52.124;21.210;2023-04-06T01:58:57;2.80;;;2.10;;
77814;SDS011;67002;52.124;21.210;2023-04-06T02:02:35;2.20;;;1.90;;
77814;SDS011;67002;52.124;21.210;2023-04-06T02:06:10;2.60;;;1.80;;
77814;SDS011;67002;52.124;21.210;2023-04-06T02:10:14;2.80;;;2.10;;
77814;SDS011;67002;52.124;21.210;2023-04-06T02:13:31;3.00;;;1.90;;
77814;SDS011;67002;52.124;21.210;2023-04-06T02:17:45;2.60;;;1.90;;
77814;SDS011;67002;52.124;21.210;2023-04-06T02:20:55;3.90;;;2.20;;
77814;SDS011;67002;52.124;21.210;2023-04-06T02:24:35;3.00;;;2.40;;
77814;SDS011;67002;52.124;21.210;2023-04-06T02:28:07;2.80;;;1.80;;
77814;SDS011;67002;52.124;21.210;2023-04-06T02:32:14;2.70;;;1.90;;
77814;SDS011;67002;52.124;21.210;2023-04-06T02:35:29;2.40;;;2.00;;
77814;SDS011;67002;52.124;21.210;2023-04-06T02:39:34;2.40;;;2.00;;
77814;SDS011;67002;52.124;21.210;2023-04-06T02:43:02;3.20;;;2.50;;
77814;SDS011;67002;52.124;21.210;2023-04-06T02:46:29;2.80;;;2.20;;
77814;SDS011;67002;52.124;21.210;2023-04-06T02:50:13;2.50;;;2.00;;
77814;SDS011;67002;52.124;21.210;2023-04-06T02:54:05;3.40;;;2.30;;
77814;SDS011;67002;52.124;21.210;2023-04-06T02:57:48;3.50;;;2.30;;
77814;SDS011;67002;52.124;21.210;2023-04-06T03:01:33;2.30;;;1.90;;
77814;SDS011;67002;52.124;21.210;2023-04-06T03:05:21;3.30;;;1.80;;
77814;SDS011;67002;52.124;21.210;2023-04-06T03:09:07;2.60;;;1.70;;
77814;SDS011;67002;52.124;21.210;2023-04-06T03:12:34;2.90;;;2.10;;
77814;SDS011;67002;52.124;21.210;2023-04-06T03:16:44;2.90;;;2.00;;
77814;SDS011;67002;52.124;21.210;2023-04-06T03:20:01;2.20;;;1.80;;
77814;SDS011;67002;52.124;21.210;2023-04-06T03:23:47;2.10;;;1.70;;
77814;SDS011;67002;52.124;21.210;2023-04-06T03:27:43;2.10;;;1.90;;
77814;SDS011;67002;52.124;21.210;2023-04-06T03:31:11;2.60;;;1.80;;
77814;SDS011;67002;52.124;21.210;2023-04-06T03:35:07;2.60;;;2.00;;
77814;SDS011;67002;52.124;21.210;2023-04-06T03:38:26;2.80;;;2.20;;
77814;SDS011;67002;52.124;21.210;2023-04-06T03:42:14;3.50;;;2.30;;
77814;SDS011;67002;52.124;21.210;2023-04-06T03:45:56;3.70;;;2.40;;
77814;SDS011;67002;52.124;21.210;2023-04-06T03:49:24;3.10;;;2.60;;
77814;SDS011;67002;52.124;21.210;2023-04-06T03:53:29;2.90;;;2.10;;
77814;SDS011;67002;52.124;21.210;2023-04-06T03:57:05;2.60;;;1.90;;
77814;SDS011;67002;52.124;21.210;2023-04-06T04:00:33;3.70;;;2.40;;
77814;SDS011;67002;52.124;21.210;2023-04-06T04:04:20;2.90;;;1.90;;
77814;SDS011;67002;52.124;21.210;2023-04-06T04:07:41;3.20;;;2.20;;
77814;SDS011;67002;52.124;21.210;2023-04-06T04:11:17;2.50;;;2.00;;
77814;SDS011;67002;52.124;21.210;2023-04-06T04:15:08;3.10;;;2.30;;
77814;SDS011;67002;52.124;21.210;2023-04-06T04:19:03;4.10;;;2.40;;
77814;SDS011;67002;52.124;21.210;2023-04-06T04:22:22;3.20;;;2.30;;
77814;SDS011;67002;52.124;21.210;2023-04-06T04:25:59;3.10;;;2.50;;
77814;SDS011;67002;52.124;21.210;2023-04-06T04:29:45;3.30;;;2.10;;
77814;SDS011;67002;52.124;21.210;2023-04-06T04:33:21;3.70;;;2.70;;
77814;SDS011;67002;52.124;21.210;2023-04-06T04:37:26;3.40;;;2.50;;
77814;SDS011;67002;52.124;21.210;2023-04-06T04:40:55;3.30;;;2.30;;
77814;SDS011;67002;52.124;21.210;2023-04-06T04:44:22;3.10;;;2.30;;
77814;SDS011;67002;52.124;21.210;2023-04-06T04:48:25;3.20;;;2.40;;
77814;SDS011;67002;52.124;21.210;2023-04-06T04:52:06;2.90;;;1.90;;
77814;SDS011;67002;52.124;21.210;2023-04-06T04:55:22;2.50;;;1.90;;
77814;SDS011;67002;52.124;21.210;2023-04-06T04:59:12;3.50;;;2.20;;
77814;SDS011;67002;52.124;21.210;2023-04-06T05:02:47;2.80;;;2.00;;
77814;SDS011;67002;52.124;21.210;2023-04-06T05:06:41;2.50;;;1.60;;
77814;SDS011;67002;52.124;21.210;2023-04-06T05:10:43;2.90;;;2.10;;
77814;SDS011;67002;52.124;21.210;2023-04-06T05:14:14;3.00;;;1.80;;
77814;SDS011;67002;52.124;21.210;2023-04-06T05:18:00;3.30;;;2.10;;
77814;SDS011;67002;52.124;21.210;2023-04-06T05:21:20;2.50;;;1.60;;
77814;SDS011;67002;52.124;21.210;2023-04-06T05:24:57;3.30;;;2.20;;
77814;SDS011;67002;52.124;21.210;2023-04-06T05:29:06;2.90;;;2.10;;
77814;SDS011;67002;52.124;21.210;2023-04-06T05:32:31;1.90;;;1.30;;
77814;SDS011;67002;52.124;21.210;2023-04-06T05:35:58;3.00;;;2.10;;
77814;SDS011;67002;52.124;21.210;2023-04-06T05:39:55;2.70;;;2.00;;
77814;SDS011;67002;52.124;21.210;2023-04-06T05:43:33;2.60;;;1.80;;
77814;SDS011;67002;52.124;21.210;2023-04-06T05:46:52;2.10;;;1.50;;
77814;SDS011;67002;52.124;21.210;2023-04-06T05:50:48;3.30;;;1.90;;
77814;SDS011;67002;52.124;21.210;2023-04-06T05:54:08;2.40;;;1.70;;
77814;SDS011;67002;52.124;21.210;2023-04-06T05:58:04;2.80;;;2.00;;
77814;SDS011;67002;52.124;21.210;2023-04-06T06:01:22;3.00;;;2.00;;
77814;SDS011;67002;52.124;21.210;2023-04-06T06:05:27;2.60;;;1.70;;
77814;SDS011;67002;52.124;21.210;2023-04-06T06:08:46;2.70;;;2.00;;
77814;SDS011;67002;52.124;21.210;2023-04-06T06:12:27;2.40;;;1.70;;
77814;SDS011;67002;52.124;21.210;2023-04-06T06:16:05;3.00;;;1.60;;
77814;SDS011;67002;52.124;21.210;2023-04-06T06:19:55;2.00;;;1.70;;
77814;SDS011;67002;52.124;21.210;2023-04-06T06:23:42;1.90;;;1.60;;
77814;SDS011;67002;52.124;21.210;2023-04-06T06:27:12;3.00;;;1.70;;
77814;SDS011;67002;52.124;21.210;2023-04-06T06:30:31;2.50;;;1.50;;
77814;SDS011;67002;52.124;21.210;2023-04-06T06:34:09;2.40;;;1.90;;
77814;SDS011;67002;52.124;21.210;2023-04-06T06:38:13;4.00;;;1.90;;
77814;SDS011;67002;52.124;21.210;2023-04-06T06:41:43;3.60;;;1.70;;
77814;SDS011;67002;52.124;21.210;2023-04-06T06:45:11;1.90;;;1.50;;
77814;SDS011;67002;52.124;21.210;2023-04-06T06:48:54;2.50;;;1.70;;
77814;SDS011;67002;52.124;21.210;2023-04-06T06:52:26;2.50;;;1.70;;
77814;SDS011;67002;52.124;21.210;2023-04-06T06:56:06;1.60;;;1.40;;
77814;SDS011;67002;52.124;21.210;2023-04-06T06:59:40;1.90;;;1.50;;
77814;SDS011;67002;52.124;21.210;2023-04-06T07:03:22;2.60;;;1.70;;
77814;SDS011;67002;52.124;21.210;2023-04-06T07:07:09;2.10;;;1.60;;
77814;SDS011;67002;52.124;21.210;2023-04-06T07:10:59;1.90;;;1.30;;
77814;SDS011;67002;52.124;21.210;2023-04-06T07:14:23;1.90;;;1.40;;
77814;SDS011;67002;52.124;21.210;2023-04-06T07:18:08;3.80;;;1.50;;
77814;SDS011;67002;52.124;21.210;2023-04-06T07:22:16;1.90;;;1.20;;
77814;SDS011;67002;52.124;21.210;2023-04-06T07:25:35;1.70;;;1.20;;
77814;SDS011;67002;52.124;21.210;2023-04-06T07:29:27;1.30;;;1.20;;
77814;SDS011;67002;52.124;21.210;2023-04-06T07:32:50;1.50;;;1.30;;
77814;SDS011;67002;52.124;21.210;2023-04-06T07:36:24;1.30;;;1.20;;
77814;SDS011;67002;52.124;21.210;2023-04-06T07:40:01;1.00;;;0.90;;
77814;SDS011;67002;52.124;21.210;2023-04-06T07:43:46;1.00;;;0.70;;
77814;SDS011;67002;52.124;21.210;2023-04-06T07:47:55;1.00;;;0.90;;
77814;SDS011;67002;52.124;21.210;2023-04-06T07:51:10;1.90;;;1.30;;
77814;SDS011;67002;52.124;21.210;2023-04-06T07:55:08;2.60;;;1.30;;
77814;SDS011;67002;52.124;21.210;2023-04-06T07:58:24;1.30;;;1.20;;
77814;SDS011;67002;52.124;21.210;2023-04-06T08:02:18;1.40;;;1.00;;
77814;SDS011;67002;52.124;21.210;2023-04-06T08:05:56;1.80;;;1.50;;
77814;SDS011;67002;52.124;21.210;2023-04-06T08:09:21;2.20;;;1.50;;
77814;SDS011;67002;52.124;21.210;2023-04-06T08:13:14;1.30;;;1.00;;
77814;SDS011;67002;52.124;21.210;2023-04-06T08:16:42;1.30;;;1.10;;
77814;SDS011;67002;52.124;21.210;2023-04-06T08:20:44;1.40;;;1.00;;
77814;SDS011;67002;52.124;21.210;2023-04-06T08:24:03;1.50;;;1.30;;
77814;SDS011;67002;52.124;21.210;2023-04-06T08:27:54;1.90;;;1.30;;
77814;SDS011;67002;52.124;21.210;2023-04-06T08:31:24;1.40;;;1.00;;
77814;SDS011;67002;52.124;21.210;2023-04-06T08:35:10;1.90;;;1.60;;
77814;SDS011;67002;52.124;21.210;2023-04-06T08:38:47;2.00;;;1.40;;
77814;SDS011;67002;52.124;21.210;2023-04-06T08:42:33;1.90;;;1.20;;
77814;SDS011;67002;52.124;21.210;2023-04-06T08:46:10;2.90;;;1.60;;
77814;SDS011;67002;52.124;21.210;2023-04-06T08:49:55;1.20;;;1.10;;
77814;SDS011;67002;52.124;21.210;2023-04-06T08:53:32;2.10;;;1.50;;
77814;SDS011;67002;52.124;21.210;2023-04-06T08:57:11;1.30;;;1.20;;
77814;SDS011;67002;52.124;21.210;2023-04-06T09:01:06;2.30;;;1.40;;
77814;SDS011;67002;52.124;21.210;2023-04-06T09:04:25;1.70;;;1.20;;
77814;SDS011;67002;52.124;21.210;2023-04-06T09:08:10;1.50;;;1.10;;
77814;SDS011;67002;52.124;21.210;2023-04-06T09:11:49;1.40;;;1.20;;
77814;SDS011;67002;52.124;21.210;2023-04-06T09:15:25;1.40;;;1.10;;
77814;SDS011;67002;52.124;21.210;2023-04-06T09:19:08;1.60;;;1.50;;
77814;SDS011;67002;52.124;21.210;2023-04-06T09:22:52;1.80;;;1.50;;
77814;SDS011;67002;52.124;21.210;2023-04-06T09:26:47;1.80;;;1.20;;
77814;SDS011;67002;52.124;21.210;2023-04-06T09:30:30;1.20;;;1.10;;
77814;SDS011;67002;52.124;21.210;2023-04-06T09:34:21;1.40;;;1.30;;
77814;SDS011;67002;52.124;21.210;2023-04-06T09:37:53;1.60;;;1.40;;
77814;SDS011;67002;52.124;21.210;2023-04-06T09:41:38;1.40;;;1.30;;
77814;SDS011;67002;52.124;21.210;2023-04-06T09:45:24;1.90;;;1.50;;
77814;SDS011;67002;52.124;21.210;2023-04-06T09:49:01;1.60;;;1.10;;
77814;SDS011;67002;52.124;21.210;2023-04-06T09:52:40;1.80;;;1.40;;
77814;SDS011;67002;52.124;21.210;2023-04-06T09:56:30;2.50;;;1.30;;
77814;SDS011;67002;52.124;21.210;2023-04-06T10:00:07;1.10;;;1.00;;
77814;SDS011;67002;52.124;21.210;2023-04-06T10:03:44;1.40;;;1.30;;
77814;SDS011;67002;52.124;21.210;2023-04-06T10:07:45;2.20;;;1.40;;
77814;SDS011;67002;52.124;21.210;2023-04-06T10:11:13;1.50;;;1.40;;
77814;SDS011;67002;52.124;21.210;2023-04-06T10:15:17;1.90;;;1.20;;
77814;SDS011;67002;52.124;21.210;2023-04-06T10:18:34;1.40;;;1.30;;
77814;SDS011;67002;52.124;21.210;2023-04-06T10:22:23;2.10;;;1.40;;
77814;SDS011;67002;52.124;21.210;2023-04-06T10:25:56;1.80;;;1.30;;
77814;SDS011;67002;52.124;21.210;2023-04-06T10:30:02;1.00;;;0.80;;
77814;SDS011;67002;52.124;21.210;2023-04-06T10:33:20;1.50;;;1.40;;
77814;SDS011;67002;52.124;21.210;2023-04-06T10:36:58;2.10;;;1.50;;
77814;SDS011;67002;52.124;21.210;2023-04-06T10:40:37;1.70;;;1.30;;
77814;SDS011;67002;52.124;21.210;2023-04-06T10:44:24;1.70;;;1.30;;
77814;SDS011;67002;52.124;21.210;2023-04-06T10:47:51;1.80;;;1.40;;
77814;SDS011;67002;52.124;21.210;2023-04-06T10:51:28;2.10;;;1.40;;
77814;SDS011;67002;52.124;21.210;2023-04-06T10:55:15;1.20;;;1.10;;
77814;SDS011;67002;52.124;21.210;2023-04-06T10:58:59;2.00;;;1.40;;
77814;SDS011;67002;52.124;21.210;2023-04-06T11:02:59;1.60;;;1.20;;
77814;SDS011;67002;52.124;21.210;2023-04-06T11:06:19;2.00;;;1.20;;
77814;SDS011;67002;52.124;21.210;2023-04-06T11:10:23;1.90;;;1.30;;
77814;SDS011;67002;52.124;21.210;2023-04-06T11:13:40;1.20;;;1.10;;
77814;SDS011;67002;52.124;21.210;2023-04-06T11:17:27;1.70;;;1.40;;
77814;SDS011;67002;52.124;21.210;2023-04-06T11:21:34;2.00;;;1.40;;
77814;SDS011;67002;52.124;21.210;2023-04-06T11:24:51;1.70;;;1.40;;
77814;SDS011;67002;52.124;21.210;2023-04-06T11:28:28;2.30;;;1.40;;
77814;SDS011;67002;52.124;21.210;2023-04-06T11:32:21;1.60;;;1.40;;
77814;SDS011;67002;52.124;21.210;2023-04-06T11:35:49;1.80;;;1.40;;
77814;SDS011;67002;52.124;21.210;2023-04-06T11:39:32;1.70;;;1.40;;
77814;SDS011;67002;52.124;21.210;2023-04-06T11:43:27;1.40;;;1.30;;
77814;SDS011;67002;52.124;21.210;2023-04-06T11:47:30;1.30;;;1.10;;
77814;SDS011;67002;52.124;21.210;2023-04-06T11:50:54;2.20;;;1.50;;
77814;SDS011;67002;52.124;21.210;2023-04-06T11:54:43;1.80;;;1.50;;
77814;SDS011;67002;52.124;21.210;2023-04-06T11:58:37;2.10;;;1.80;;
77814;SDS011;67002;52.124;21.210;2023-04-06T12:02:07;1.60;;;1.50;;
77814;SDS011;67002;52.124;21.210;2023-04-06T12:05:35;2.00;;;1.40;;
77814;SDS011;67002;52.124;21.210;2023-04-06T12:09:20;2.30;;;1.30;;
77814;SDS011;67002;52.124;21.210;2023-04-06T12:13:07;2.50;;;1.60;;
77814;SDS011;67002;52.124;21.210;2023-04-06T12:16:45;1.40;;;1.30;;
77814;SDS011;67002;52.124;21.210;2023-04-06T12:20:36;1.90;;;1.30;;
77814;SDS011;67002;52.124;21.210;2023-04-06T12:23:49;1.60;;;1.30;;
77814;SDS011;67002;52.124;21.210;2023-04-06T12:27:52;2.50;;;1.80;;
77814;SDS011;67002;52.124;21.210;2023-04-06T12:31:28;1.80;;;1.50;;
77814;SDS011;67002;52.124;21.210;2023-04-06T12:34:52;2.00;;;1.60;;
77814;SDS011;67002;52.124;21.210;2023-04-06T12:38:43;1.60;;;1.40;;
77814;SDS011;67002;52.124;21.210;2023-04-06T12:42:23;2.50;;;1.70;;
77814;SDS011;67002;52.124;21.210;2023-04-06T12:45:42;1.50;;;1.20;;
77814;SDS011;67002;52.124;21.210;2023-04-06T12:49:25;1.50;;;1.30;;
77814;SDS011;67002;52.124;21.210;2023-04-06T12:53:22;2.30;;;1.70;;
77814;SDS011;67002;52.124;21.210;2023-04-06T12:57:00;2.70;;;1.80;;
77814;SDS011;67002;52.124;21.210;2023-04-06T13:00:28;1.90;;;1.60;;
77814;SDS011;67002;52.124;21.210;2023-04-06T13:04:32;2.50;;;1.60;;
77814;SDS011;67002;52.124;21.210;2023-04-06T13:07:52;2.00;;;1.50;;
77814;SDS011;67002;52.124;21.210;2023-04-06T13:11:48;2.20;;;1.40;;
77814;SDS011;67002;52.124;21.210;2023-04-06T13:15:11;1.60;;;1.40;;
77814;SDS011;67002;52.124;21.210;2023-04-06T13:19:03;3.00;;;1.90;;
77814;SDS011;67002;52.124;21.210;2023-04-06T13:22:26;2.00;;;1.80;;
77814;SDS011;67002;52.124;21.210;2023-04-06T13:26:19;1.80;;;1.50;;
77814;SDS011;67002;52.124;21.210;2023-04-06T13:29:35;2.30;;;1.90;;
77814;SDS011;67002;52.124;21.210;2023-04-06T13:33:26;1.20;;;1.10;;
77814;SDS011;67002;52.124;21.210;2023-04-06T13:36:56;2.90;;;1.60;;
77814;SDS011;67002;52.124;21.210;2023-04-06T13:40:41;2.20;;;1.70;;
77814;SDS011;67002;52.124;21.210;2023-04-06T13:44:43;2.40;;;1.70;;
77814;SDS011;67002;52.124;21.210;2023-04-06T13:48:22;1.60;;;1.50;;
77814;SDS011;67002;52.124;21.210;2023-04-06T13:51:42;1.80;;;1.30;;
77814;SDS011;67002;52.124;21.210;2023-04-06T13:55:27;1.20;;;1.10;;
77814;SDS011;67002;52.124;21.210;2023-04-06T13:59:02;2.50;;;1.60;;
77814;SDS011;67002;52.124;21.210;2023-04-06T14:02:36;4.40;;;1.70;;
77814;SDS011;67002;52.124;21.210;2023-04-06T14:06:31;2.00;;;1.50;;
77814;SDS011;67002;52.124;21.210;2023-04-06T14:09:51;1.20;;;1.10;;
77814;SDS011;67002;52.124;21.210;2023-04-06T14:13:55;1.60;;;1.30;;
77814;SDS011;67002;52.124;21.210;2023-04-06T14:17:14;2.30;;;2.00;;
77814;SDS011;67002;52.124;21.210;2023-04-06T14:20:44;3.00;;;2.20;;
77814;SDS011;67002;52.124;21.210;2023-04-06T14:24:38;2.70;;;2.00;;
77814;SDS011;67002;52.124;21.210;2023-04-06T14:28:22;2.70;;;2.00;;
77814;SDS011;67002;52.124;21.210;2023-04-06T14:31:34;4.00;;;2.30;;
77814;SDS011;67002;52.124;21.210;2023-04-06T14:35:17;3.00;;;2.50;;
77814;SDS011;67002;52.124;21.210;2023-04-06T14:39:29;2.40;;;2.10;;
77814;SDS011;67002;52.124;21.210;2023-04-06T14:43:00;2.80;;;2.10;;
77814;SDS011;67002;52.124;21.210;2023-04-06T14:46:28;3.50;;;2.30;;
77814;SDS011;67002;52.124;21.210;2023-04-06T14:50:15;2.30;;;1.80;;
77814;SDS011;67002;52.124;21.210;2023-04-06T14:53:33;3.50;;;2.90;;
77814;SDS011;67002;52.124;21.210;2023-04-06T14:57:09;3.60;;;3.10;;
77814;SDS011;67002;52.124;21.210;2023-04-06T15:01:12;3.00;;;2.40;;
77814;SDS011;67002;52.124;21.210;2023-04-06T15:04:50;3.10;;;2.20;;
77814;SDS011;67002;52.124;21.210;2023-04-06T15:08:08;3.30;;;2.80;;
77814;SDS011;67002;52.124;21.210;2023-04-06T15:12:22;2.30;;;2.10;;
77814;SDS011;67002;52.124;21.210;2023-04-06T15:15:33;2.70;;;2.10;;
77814;SDS011;67002;52.124;21.210;2023-04-06T15:19:22;2.60;;;2.20;;
77814;SDS011;67002;52.124;21.210;2023-04-06T15:22:57;3.30;;;2.40;;
77814;SDS011;67002;52.124;21.210;2023-04-06T15:26:34;2.20;;;1.70;;
77814;SDS011;67002;52.124;21.210;2023-04-06T15:30:23;2.90;;;1.80;;
77814;SDS011;67002;52.124;21.210;2023-04-06T15:34:01;3.40;;;2.30;;
77814;SDS011;67002;52.124;21.210;2023-04-06T15:37:42;2.20;;;1.80;;
77814;SDS011;67002;52.124;21.210;2023-04-06T15:41:39;2.80;;;1.90;;
77814;SDS011;67002;52.124;21.210;2023-04-06T15:44:48;2.60;;;2.10;;
77814;SDS011;67002;52.124;21.210;2023-04-06T15:48:31;2.50;;;2.20;;
77814;SDS011;67002;52.124;21.210;2023-04-06T15:52:14;2.40;;;2.10;;
77814;SDS011;67002;52.124;21.210;2023-04-06T15:56:21;3.10;;;1.90;;
77814;SDS011;67002;52.124;21.210;2023-04-06T15:59:56;1.90;;;1.70;;
77814;SDS011;67002;52.124;21.210;2023-04-06T16:03:31;3.00;;;1.80;;
77814;SDS011;67002;52.124;21.210;2023-04-06T16:07:02;3.10;;;2.10;;
77814;SDS011;67002;52.124;21.210;2023-04-06T16:10:27;3.10;;;2.40;;
77814;SDS011;67002;52.124;21.210;2023-04-06T16:14:12;2.90;;;2.00;;
77814;SDS011;67002;52.124;21.210;2023-04-06T16:17:57;3.90;;;2.20;;
77814;SDS011;67002;52.124;21.210;2023-04-06T16:22:02;3.60;;;2.50;;
77814;SDS011;67002;52.124;21.210;2023-04-06T16:25:21;2.90;;;2.30;;
77814;SDS011;67002;52.124;21.210;2023-04-06T16:29:20;3.50;;;2.90;;
77814;SDS011;67002;52.124;21.210;2023-04-06T16:32:59;2.60;;;2.20;;
77814;SDS011;67002;52.124;21.210;2023-04-06T16:36:13;4.30;;;2.90;;
77814;SDS011;67002;52.124;21.210;2023-04-06T16:39:58;3.20;;;2.70;;
77814;SDS011;67002;52.124;21.210;2023-04-06T16:43:52;3.50;;;2.40;;
77814;SDS011;67002;52.124;21.210;2023-04-06T16:47:28;2.70;;;2.30;;
77814;SDS011;67002;52.124;21.210;2023-04-06T16:51:19;3.40;;;2.70;;
77814;SDS011;67002;52.124;21.210;2023-04-06T16:54:34;2.70;;;2.00;;
77814;SDS011;67002;52.124;21.210;2023-04-06T16:58:23;2.80;;;2.30;;
77814;SDS011;67002;52.124;21.210;2023-04-06T17:02:14;3.90;;;2.90;;
77814;SDS011;67002;52.124;21.210;2023-04-06T17:05:35;4.10;;;2.80;;
77814;SDS011;67002;52.124;21.210;2023-04-06T17:09:22;3.90;;;3.20;;
77814;SDS011;67002;52.124;21.210;2023-04-06T17:12:50;4.10;;;2.80;;
77814;SDS011;67002;52.124;21.210;2023-04-06T17:16:33;4.30;;;3.40;;
77814;SDS011;67002;52.124;21.210;2023-04-06T17:20:26;3.60;;;2.80;;
77814;SDS011;67002;52.124;21.210;2023-04-06T17:24:16;3.80;;;2.70;;
77814;SDS011;67002;52.124;21.210;2023-04-06T17:27:50;3.00;;;2.60;;
77814;SDS011;67002;52.124;21.210;2023-04-06T17:31:10;2.80;;;2.50;;
77814;SDS011;67002;52.124;21.210;2023-04-06T17:35:15;2.90;;;2.60;;
77814;SDS011;67002;52.124;21.210;2023-04-06T17:38:36;3.20;;;2.80;;
77814;SDS011;67002;52.124;21.210;2023-04-06T17:42:18;3.30;;;2.50;;
77814;SDS011;67002;52.124;21.210;2023-04-06T17:45:48;3.30;;;2.70;;
77814;SDS011;67002;52.124;21.210;2023-04-06T17:49:43;2.90;;;2.20;;
77814;SDS011;67002;52.124;21.210;2023-04-06T17:53:29;3.10;;;2.50;;
77814;SDS011;67002;52.124;21.210;2023-04-06T17:57:17;3.10;;;2.60;;
77814;SDS011;67002;52.124;21.210;2023-04-06T18:00:43;2.60;;;2.20;;
77814;SDS011;67002;52.124;21.210;2023-04-06T18:04:07;3.60;;;2.90;;
77814;SDS011;67002;52.124;21.210;2023-04-06T18:07:41;3.60;;;2.70;;
77814;SDS011;67002;52.124;21.210;2023-04-06T18:11:43;3.10;;;2.20;;
77814;SDS011;67002;52.124;21.210;2023-04-06T18:15:04;3.80;;;3.10;;
77814;SDS011;67002;52.124;21.210;2023-04-06T18:19:08;3.10;;;2.50;;
77814;SDS011;67002;52.124;21.210;2023-04-06T18:22:28;3.50;;;2.80;;
77814;SDS011;67002;52.124;21.210;2023-04-06T18:26:24;3.20;;;2.90;;
77814;SDS011;67002;52.124;21.210;2023-04-06T18:29:40;3.60;;;2.60;;
77814;SDS011;67002;52.124;21.210;2023-04-06T18:33:28;3.40;;;2.80;;
77814;SDS011;67002;52.124;21.210;2023-04-06T18:37:28;3.60;;;3.00;;
77814;SDS011;67002;52.124;21.210;2023-04-06T18:40:45;3.30;;;2.60;;
77814;SDS011;67002;52.124;21.210;2023-04-06T18:44:21;3.60;;;3.30;;
77814;SDS011;67002;52.124;21.210;2023-04-06T18:48:06;2.60;;;2.20;;
77814;SDS011;67002;52.124;21.210;2023-04-06T18:52:18;3.20;;;2.90;;
77814;SDS011;67002;52.124;21.210;2023-04-06T18:55:46;2.70;;;2.30;;
77814;SDS011;67002;52.124;21.210;2023-04-06T18:59:23;2.80;;;2.40;;
77814;SDS011;67002;52.124;21.210;2023-04-06T19:02:44;2.80;;;2.30;;
77814;SDS011;67002;52.124;21.210;2023-04-06T19:06:40;2.90;;;2.60;;
77814;SDS011;67002;52.124;21.210;2023-04-06T19:10:00;3.20;;;2.90;;
77814;SDS011;67002;52.124;21.210;2023-04-06T19:13:51;2.50;;;2.30;;
77814;SDS011;67002;52.124;21.210;2023-04-06T19:17:41;2.80;;;2.50;;
77814;SDS011;67002;52.124;21.210;2023-04-06T19:21:00;3.40;;;3.10;;
77814;SDS011;67002;52.124;21.210;2023-04-06T19:25:13;2.60;;;2.40;;
77814;SDS011;67002;52.124;21.210;2023-04-06T19:28:39;3.20;;;2.90;;
77814;SDS011;67002;52.124;21.210;2023-04-06T19:32:19;2.80;;;2.40;;
77814;SDS011;67002;52.124;21.210;2023-04-06T19:35:57;3.30;;;2.20;;
77814;SDS011;67002;52.124;21.210;2023-04-06T19:39:34;3.00;;;2.60;;
77814;SDS011;67002;52.124;21.210;2023-04-06T19:43:12;2.40;;;2.10;;
77814;SDS011;67002;52.124;21.210;2023-04-06T19:46:51;2.10;;;1.80;;
77814;SDS011;67002;52.124;21.210;2023-04-06T19:50:37;2.30;;;2.00;;
77814;SDS011;67002;52.124;21.210;2023-04-06T19:54:15;2.10;;;1.90;;
77814;SDS011;67002;52.124;21.210;2023-04-06T19:57:24;2.30;;;2.00;;
77814;SDS011;67002;52.124;21.210;2023-04-06T20:01:20;2.80;;;2.40;;
77814;SDS011;67002;52.124;21.210;2023-04-06T20:04:52;2.30;;;2.00;;
77814;SDS011;67002;52.124;21.210;2023-04-06T20:08:46;2.10;;;1.70;;
77814;SDS011;67002;52.124;21.210;2023-04-06T20:12:14;2.50;;;2.20;;
77814;SDS011;67002;52.124;21.210;2023-04-06T20:15:32;3.00;;;2.70;;
77814;SDS011;67002;52.124;21.210;2023-04-06T20:19:34;2.90;;;2.50;;
77814;SDS011;67002;52.124;21.210;2023-04-06T20:23:13;3.20;;;2.30;;
77814;SDS011;67002;52.124;21.210;2023-04-06T20:26:52;2.10;;;1.90;;
77814;SDS011;67002;52.124;21.210;2023-04-06T20:30:11;2.80;;;2.50;;
77814;SDS011;67002;52.124;21.210;2023-04-06T20:33:49;2.70;;;2.30;;
77814;SDS011;67002;52.124;21.210;2023-04-06T20:37:44;3.10;;;2.80;;
77814;SDS011;67002;52.124;21.210;2023-04-06T20:41:07;2.80;;;2.30;;
77814;SDS011;67002;52.124;21.210;2023-04-06T20:44:45;2.50;;;1.90;;
77814;SDS011;67002;52.124;21.210;2023-04-06T20:48:33;3.40;;;3.10;;
77814;SDS011;67002;52.124;21.210;2023-04-06T20:52:25;3.20;;;2.90;;
77814;SDS011;67002;52.124;21.210;2023-04-06T20:55:36;4.00;;;3.60;;
77814;SDS011;67002;52.124;21.210;2023-04-06T20:59:25;3.60;;;3.30;;
77814;SDS011;67002;52.124;21.210;2023-04-06T21:03:01;3.30;;;2.20;;
77814;SDS011;67002;52.124;21.210;2023-04-06T21:06:47;3.50;;;3.20;;
77814;SDS011;67002;52.124;21.210;2023-04-06T21:10:23;3.40;;;2.90;;
77814;SDS011;67002;52.124;21.210;2023-04-06T21:14:31;4.80;;;3.80;;
77814;SDS011;67002;52.124;21.210;2023-04-06T21:18:08;3.70;;;3.40;;
77814;SDS011;67002;52.124;21.210;2023-04-06T21:21:23;4.80;;;4.30;;
77814;SDS011;67002;52.124;21.210;2023-04-06T21:25:05;4.10;;;3.50;;
77814;SDS011;67002;52.124;21.210;2023-04-06T21:28:39;3.70;;;3.10;;
77814;SDS011;67002;52.124;21.210;2023-04-06T21:32:23;3.40;;;2.70;;
77814;SDS011;67002;52.124;21.210;2023-04-06T21:36:09;4.20;;;3.80;;
77814;SDS011;67002;52.124;21.210;2023-04-06T21:39:58;4.70;;;4.20;;
77814;SDS011;67002;52.124;21.210;2023-04-06T21:43:20;3.80;;;3.30;;